createdAt,value
2022-09-28T00:00:35.137Z,98956.84
2022-09-28T00:03:01.846Z,98951.88
2022-09-28T00:05:28.532Z,98957.25
2022-09-28T00:07:56.646Z,98952.97
2022-09-28T00:10:23.326Z,98952.28
2022-09-28T00:12:50.802Z,98961.31
2022-09-28T00:15:18.001Z,98958.00
2022-09-28T00:17:45.037Z,98953.75
2022-09-28T00:20:12.068Z,98958.56
2022-09-28T00:22:39.198Z,98949.31
2022-09-28T00:25:06.950Z,98950.44
2022-09-28T00:27:33.659Z,98946.19
2022-09-28T00:30:00.320Z,98949.75
2022-09-28T00:32:28.016Z,98938.44
2022-09-28T00:34:55.071Z,98941.25
2022-09-28T00:37:21.806Z,98950.03
2022-09-28T00:39:48.877Z,98945.81
2022-09-28T00:42:17.055Z,98951.25
2022-09-28T00:44:47.202Z,98940.88
2022-09-28T00:47:17.103Z,98939.44
2022-09-28T00:49:44.652Z,98950.94
2022-09-28T00:52:15.187Z,98948.44
2022-09-28T00:54:43.560Z,98936.22
2022-09-28T00:57:10.186Z,98939.81
2022-09-28T00:59:36.898Z,98944.22
2022-09-28T01:02:03.778Z,98946.72
2022-09-28T01:04:31.115Z,98941.53
2022-09-28T01:06:58.171Z,98946.84
2022-09-28T01:09:26.450Z,98936.28
2022-09-28T01:11:53.176Z,98941.53
2022-09-28T01:14:20.733Z,98940.63
2022-09-28T01:16:56.326Z,98945.69
2022-09-28T01:19:38.117Z,98931.63
2022-09-28T01:22:12.912Z,98934.06
2022-09-28T01:24:45.586Z,98936.59
2022-09-28T01:27:28.058Z,98930.44
2022-09-28T01:30:00.388Z,98929.19
2022-09-28T01:32:37.914Z,98942.66
2022-09-28T01:35:10.928Z,98935.50
2022-09-28T01:37:44.349Z,98931.16
2022-09-28T01:40:12.081Z,98931.09
2022-09-28T01:42:40.509Z,98934.59
2022-09-28T01:45:12.430Z,98927.28
2022-09-28T01:47:40.478Z,98933.38
2022-09-28T01:50:12.425Z,98924.50
2022-09-28T01:52:47.424Z,98919.81
2022-09-28T01:55:32.489Z,98932.97
2022-09-28T01:58:08.187Z,98925.81
2022-09-28T02:00:36.260Z,98924.31
2022-09-28T02:03:10.581Z,98923.53
2022-09-28T02:05:37.652Z,98925.03
2022-09-28T02:08:13.864Z,98924.44
2022-09-28T02:11:02.473Z,98922.88
2022-09-28T02:13:41.011Z,98927.47
2022-09-28T02:16:19.766Z,98922.22
2022-09-28T02:18:46.866Z,98925.41
2022-09-28T02:21:27.117Z,98913.19
2022-09-28T02:24:02.571Z,98913.22
2022-09-28T02:26:44.914Z,98918.44
2022-09-28T02:29:11.945Z,98924.78
2022-09-28T02:31:38.648Z,98918.53
2022-09-28T02:34:05.364Z,98921.09
2022-09-28T02:36:32.508Z,98921.16
2022-09-28T02:39:01.179Z,98923.00
2022-09-28T02:41:45.805Z,98913.47
2022-09-28T02:44:28.019Z,98914.59
2022-09-28T02:47:22.496Z,98916.59
2022-09-28T02:50:16.426Z,98917.56
2022-09-28T02:52:54.052Z,98917.72
2022-09-28T02:55:34.276Z,98917.03
2022-09-28T02:58:30.191Z,98917.72
2022-09-28T03:01:09.045Z,98915.00
2022-09-28T03:03:45.343Z,98913.03
2022-09-28T03:06:16.526Z,98909.22
2022-09-28T03:08:48.572Z,98906.53
2022-09-28T03:11:20.540Z,98910.31
2022-09-28T03:13:47.716Z,98904.94
2022-09-28T03:16:16.912Z,98908.50
2022-09-28T03:18:44.126Z,98905.81
2022-09-28T03:21:14.659Z,98900.47
2022-09-28T03:23:42.160Z,98908.28
2022-09-28T03:26:11.480Z,98906.50
2022-09-28T03:28:38.141Z,98898.56
2022-09-28T03:31:04.998Z,98899.47
2022-09-28T03:33:31.758Z,98902.03
2022-09-28T03:35:58.780Z,98896.94
2022-09-28T03:38:25.681Z,98903.81
2022-09-28T03:40:53.614Z,98895.81
2022-09-28T03:43:20.346Z,98891.31
2022-09-28T03:45:57.911Z,98900.66
2022-09-28T03:48:31.195Z,98890.22
2022-09-28T03:50:59.758Z,98896.31
2022-09-28T03:53:26.531Z,98895.41
2022-09-28T03:55:53.640Z,98893.69
2022-09-28T03:58:21.049Z,98887.59
2022-09-28T04:00:48.576Z,98884.88
2022-09-28T04:03:15.444Z,98886.56
2022-09-28T04:05:52.099Z,98887.38
2022-09-28T04:08:19.358Z,98879.19
2022-09-28T04:10:46.175Z,98887.00
2022-09-28T04:13:12.837Z,98885.53
2022-09-28T04:15:39.504Z,98880.97
2022-09-28T04:18:10.797Z,98877.75
2022-09-28T04:20:37.604Z,98883.66
2022-09-28T04:23:04.239Z,98879.13
2022-09-28T04:25:30.893Z,98874.91
2022-09-28T04:28:16.104Z,98881.94
2022-09-28T04:30:42.816Z,98886.63
2022-09-28T04:33:09.462Z,98878.69
2022-09-28T04:35:37.009Z,98879.81
2022-09-28T04:38:03.769Z,98885.34
2022-09-28T04:40:30.634Z,98875.41
2022-09-28T04:42:57.388Z,98878.06
2022-09-28T04:45:26.269Z,98871.09
2022-09-28T04:47:53.127Z,98873.44
2022-09-28T04:50:19.795Z,98876.00
2022-09-28T04:52:46.505Z,98879.34
2022-09-28T04:55:14.388Z,98874.00
2022-09-28T04:57:41.075Z,98863.41
2022-09-28T05:00:09.034Z,98873.88
2022-09-28T05:02:35.753Z,98862.44
2022-09-28T05:05:02.390Z,98865.75
2022-09-28T05:07:29.095Z,98862.13
2022-09-28T05:09:55.925Z,98864.84
2022-09-28T05:12:22.529Z,98865.69
2022-09-28T05:14:49.120Z,98863.91
2022-09-28T05:17:15.802Z,98863.50
2022-09-28T05:19:43.069Z,98868.91
2022-09-28T05:22:14.766Z,98863.13
2022-09-28T05:24:41.660Z,98860.03
2022-09-28T05:27:08.682Z,98869.00
2022-09-28T05:29:35.364Z,98875.31
2022-09-28T05:32:02.253Z,98879.66
2022-09-28T05:34:29.334Z,98880.69
2022-09-28T05:36:55.905Z,98889.50
2022-09-28T05:39:22.519Z,98880.69
2022-09-28T05:41:49.202Z,98880.47
2022-09-28T05:44:15.820Z,98889.97
2022-09-28T05:46:42.497Z,98881.16
2022-09-28T05:49:09.095Z,98880.88
2022-09-28T05:51:35.727Z,98883.72
2022-09-28T05:54:05.889Z,98882.00
2022-09-28T05:56:33.230Z,98879.44
2022-09-28T05:58:59.899Z,98882.16
2022-09-28T06:01:26.682Z,98871.53
2022-09-28T06:03:53.327Z,98873.13
2022-09-28T06:06:19.923Z,98875.53
2022-09-28T06:08:48.389Z,98874.44
2022-09-28T06:11:14.981Z,98877.59
2022-09-28T06:13:41.593Z,98878.28
2022-09-28T06:16:08.806Z,98871.09
2022-09-28T06:18:35.468Z,98865.47
2022-09-28T06:21:02.849Z,98869.69
2022-09-28T06:23:29.434Z,98871.66
2022-09-28T06:25:56.026Z,98858.56
2022-09-28T06:28:22.737Z,98863.50
2022-09-28T06:30:49.369Z,98861.88
2022-09-28T06:33:16.340Z,98867.91
2022-09-28T06:35:43.150Z,98864.13
2022-09-28T06:38:10.319Z,98867.06
2022-09-28T06:40:37.357Z,98849.50
2022-09-28T06:43:12.074Z,98855.53
2022-09-28T06:45:38.906Z,98861.66
2022-09-28T06:48:06.086Z,98862.28
2022-09-28T06:50:50.950Z,98859.47
2022-09-28T06:53:17.852Z,98865.28
2022-09-28T06:55:46.200Z,98854.50
2022-09-28T06:58:15.311Z,98859.59
2022-09-28T07:00:42.306Z,98860.06
2022-09-28T07:03:12.239Z,98855.25
2022-09-28T07:05:42.290Z,98850.75
2022-09-28T07:08:09.057Z,98856.75
2022-09-28T07:10:35.676Z,98856.88
2022-09-28T07:13:04.736Z,98850.94
2022-09-28T07:15:32.071Z,98857.03
2022-09-28T07:18:04.081Z,98854.31
2022-09-28T07:20:45.919Z,98869.88
2022-09-28T07:23:19.844Z,98860.19
2022-09-28T07:25:47.947Z,98850.91
2022-09-28T07:28:15.359Z,98850.16
2022-09-28T07:30:44.225Z,98855.25
2022-09-28T07:33:14.526Z,98860.88
2022-09-28T07:35:42.391Z,98864.03
2022-09-28T07:38:10.384Z,98856.59
2022-09-28T07:40:55.715Z,98866.09
2022-09-28T07:43:22.583Z,98866.22
2022-09-28T07:45:54.210Z,98868.03
2022-09-28T07:48:21.735Z,98860.59
2022-09-28T07:50:52.904Z,98860.19
2022-09-28T07:53:20.438Z,98865.31
2022-09-28T07:56:08.958Z,98864.78
2022-09-28T07:58:37.210Z,98856.56
2022-09-28T08:01:10.324Z,98865.41
2022-09-28T08:03:38.223Z,98862.91
2022-09-28T08:06:07.583Z,98862.13
2022-09-28T08:08:35.719Z,98869.19
2022-09-28T08:11:02.599Z,98869.00
2022-09-28T08:13:29.852Z,98863.53
2022-09-28T08:16:01.051Z,98869.13
2022-09-28T08:18:27.675Z,98863.84
2022-09-28T08:21:12.996Z,98866.81
2022-09-28T08:23:39.666Z,98864.69
2022-09-28T08:26:06.698Z,98870.59
2022-09-28T08:28:34.921Z,98865.16
2022-09-28T08:31:01.915Z,98868.16
2022-09-28T08:33:28.704Z,98865.72
2022-09-28T08:35:59.048Z,98865.34
2022-09-28T08:38:26.953Z,98866.56
2022-09-28T08:41:11.892Z,98864.13
2022-09-28T08:44:00.814Z,98862.97
2022-09-28T08:46:33.626Z,98859.50
2022-09-28T08:49:25.790Z,98874.03
2022-09-28T08:51:58.754Z,98868.00
2022-09-28T08:54:28.541Z,98868.47
2022-09-28T08:57:03.160Z,98873.81
2022-09-28T08:59:53.375Z,98873.56
2022-09-28T09:02:33.598Z,98875.34
2022-09-28T09:05:03.271Z,98879.38
2022-09-28T09:07:42.569Z,98866.72
2022-09-28T09:10:53.953Z,98871.59
2022-09-28T09:13:37.574Z,98873.59
2022-09-28T09:16:04.165Z,98875.56
2022-09-28T09:18:37.313Z,98884.84
2022-09-28T09:21:43.022Z,98879.00
2022-09-28T09:24:21.687Z,98880.72
2022-09-28T09:26:52.514Z,98876.88
2022-09-28T09:29:35.215Z,98881.00
2022-09-28T09:32:24.727Z,98884.91
2022-09-28T09:35:00.705Z,98879.88
2022-09-28T09:38:07.045Z,98880.09
2022-09-28T09:40:36.618Z,98887.34
2022-09-28T09:43:24.142Z,98872.06
2022-09-28T09:46:00.130Z,98877.44
2022-09-28T09:48:30.048Z,98876.38
2022-09-28T09:51:26.382Z,98867.91
2022-09-28T09:54:00.030Z,98868.16
2022-09-28T09:56:38.490Z,98869.63
2022-09-28T09:59:12.265Z,98864.28
2022-09-28T10:01:40.241Z,98867.44
2022-09-28T10:04:14.326Z,98865.34
2022-09-28T10:06:41.953Z,98859.56
2022-09-28T10:09:30.819Z,98863.84
2022-09-28T10:11:57.768Z,98859.00
2022-09-28T10:14:25.482Z,98853.38
2022-09-28T10:16:55.436Z,98855.88
2022-09-28T10:19:33.081Z,98857.25
2022-09-28T10:22:06.297Z,98861.69
2022-09-28T10:24:37.325Z,98862.09
2022-09-28T10:27:22.590Z,98852.16
2022-09-28T10:29:55.828Z,98857.03
2022-09-28T10:32:38.480Z,98860.81
2022-09-28T10:35:18.648Z,98861.69
2022-09-28T10:37:55.334Z,98864.56
2022-09-28T10:40:30.357Z,98866.25
2022-09-28T10:43:02.506Z,98859.75
2022-09-28T10:45:33.265Z,98871.72
2022-09-28T10:48:01.590Z,98870.50
2022-09-28T10:50:28.360Z,98876.63
2022-09-28T10:53:11.168Z,98878.94
2022-09-28T10:55:37.807Z,98874.50
2022-09-28T10:58:27.404Z,98876.94
2022-09-28T11:01:03.302Z,98881.13
2022-09-28T11:03:30.533Z,98879.41
2022-09-28T11:06:00.645Z,98872.50
2022-09-28T11:08:38.153Z,98876.38
2022-09-28T11:11:13.317Z,98871.66
2022-09-28T11:13:42.491Z,98875.59
2022-09-28T11:16:19.328Z,98872.41
2022-09-28T11:18:46.014Z,98871.53
2022-09-28T11:21:18.509Z,98867.16
2022-09-28T11:24:07.482Z,98870.75
2022-09-28T11:26:41.533Z,98870.88
2022-09-28T11:29:20.361Z,98869.59
2022-09-28T11:31:47.313Z,98863.03
2022-09-28T11:34:27.755Z,98871.75
2022-09-28T11:37:28.294Z,98867.97
2022-09-28T11:40:16.476Z,98869.59
2022-09-28T11:42:58.425Z,98873.88
2022-09-28T11:45:40.307Z,98868.56
2022-09-28T11:48:15.616Z,98871.91
2022-09-28T11:50:44.620Z,98873.69
2022-09-28T11:53:20.692Z,98865.22
2022-09-28T11:55:52.045Z,98870.50
2022-09-28T11:58:27.556Z,98870.22
2022-09-28T12:01:03.793Z,98867.25
2022-09-28T12:03:40.683Z,98868.97
2022-09-28T12:06:11.588Z,98876.41
2022-09-28T12:08:45.909Z,98874.19
2022-09-28T12:11:20.629Z,98877.00
2022-09-28T12:13:51.533Z,98867.41
2022-09-28T12:16:53.026Z,98871.91
2022-09-28T12:19:19.396Z,98869.50
2022-09-28T12:21:51.884Z,98866.09
2022-09-28T12:24:31.579Z,98873.28
2022-09-28T12:27:10.407Z,98874.19
2022-09-28T12:29:44.423Z,98882.22
2022-09-28T12:32:18.030Z,98877.72
2022-09-28T12:34:44.740Z,98880.81
2022-09-28T12:37:56.631Z,98878.75
2022-09-28T12:40:32.702Z,98887.19
2022-09-28T12:43:09.651Z,98878.34
2022-09-28T12:46:06.767Z,98881.91
2022-09-28T12:48:52.931Z,98876.25
2022-09-28T12:51:40.011Z,98878.47
2022-09-28T12:54:34.442Z,98881.22
2022-09-28T12:57:24.389Z,98884.03
2022-09-28T13:00:13.752Z,98884.78
2022-09-28T13:02:55.589Z,98878.41
2022-09-28T13:05:44.250Z,98877.16
2022-09-28T13:08:26.919Z,98880.63
2022-09-28T13:11:21.837Z,98883.28
2022-09-28T13:14:19.209Z,98878.22
2022-09-28T13:16:56.151Z,98879.56
2022-09-28T13:19:41.153Z,98871.47
2022-09-28T13:22:34.260Z,98883.75
2022-09-28T13:25:04.606Z,98876.75
2022-09-28T13:27:41.152Z,98884.38
2022-09-28T13:30:08.422Z,98884.69
2022-09-28T13:32:36.334Z,98894.31
2022-09-28T13:35:03.174Z,98886.56
2022-09-28T13:37:29.913Z,98891.19
2022-09-28T13:40:05.823Z,98898.03
2022-09-28T13:42:44.542Z,98893.69
2022-09-28T13:45:20.287Z,98894.84
2022-09-28T13:48:14.639Z,98904.41
2022-09-28T13:51:06.558Z,98910.09
2022-09-28T13:54:02.862Z,98916.94
2022-09-28T13:56:49.180Z,98916.94
2022-09-28T13:59:28.903Z,98912.78
2022-09-28T14:02:13.890Z,98917.97
2022-09-28T14:05:05.029Z,98918.13
2022-09-28T14:07:34.633Z,98925.75
2022-09-28T14:10:27.743Z,98924.44
2022-09-28T14:12:54.957Z,98926.97
2022-09-28T14:15:36.937Z,98924.34
2022-09-28T14:18:12.895Z,98926.13
2022-09-28T14:20:42.538Z,98939.50
2022-09-28T14:23:47.701Z,98935.75
2022-09-28T14:26:41.878Z,98937.72
2022-09-28T14:29:17.759Z,98941.44
2022-09-28T14:31:45.326Z,98946.34
2022-09-28T14:34:41.924Z,98942.75
2022-09-28T14:37:39.578Z,98944.03
2022-09-28T14:40:52.370Z,98947.75
2022-09-28T14:43:45.130Z,98949.06
2022-09-28T14:46:11.855Z,98948.59
2022-09-28T14:48:53.966Z,98943.06
2022-09-28T14:51:26.679Z,98950.16
2022-09-28T14:53:54.812Z,98955.44
2022-09-28T14:56:22.059Z,98950.56
2022-09-28T14:58:54.085Z,98945.91
2022-09-28T15:01:24.640Z,98949.59
2022-09-28T15:03:56.507Z,98949.19
2022-09-28T15:06:24.706Z,98943.75
2022-09-28T15:08:51.522Z,98943.03
2022-09-28T15:11:20.618Z,98946.91
2022-09-28T15:13:47.276Z,98943.53
2022-09-28T15:16:16.151Z,98945.50
2022-09-28T15:19:08.860Z,98944.91
2022-09-28T15:21:37.202Z,98944.84
2022-09-28T15:24:23.790Z,98937.69
2022-09-28T15:26:50.505Z,98943.78
2022-09-28T15:29:18.437Z,98940.34
2022-09-28T15:31:45.569Z,98953.34
2022-09-28T15:34:49.080Z,98948.63
2022-09-28T15:37:19.041Z,98957.88
2022-09-28T15:39:48.194Z,98953.53
2022-09-28T15:42:16.669Z,98958.34
2022-09-28T15:44:45.782Z,98956.78
2022-09-28T15:47:23.895Z,98956.56
2022-09-28T15:49:58.484Z,98951.00
2022-09-28T15:52:44.897Z,98950.22
2022-09-28T15:55:19.827Z,98953.56
2022-09-28T15:57:47.436Z,98951.06
2022-09-28T16:00:29.903Z,98956.50
2022-09-28T16:03:16.737Z,98959.16
2022-09-28T16:05:52.212Z,98961.56
2022-09-28T16:08:27.226Z,98956.44
2022-09-28T16:11:20.095Z,98971.84
2022-09-28T16:13:57.487Z,98970.91
2022-09-28T16:16:28.208Z,98975.78
2022-09-28T16:18:55.627Z,98971.84
2022-09-28T16:21:31.836Z,98978.41
2022-09-28T16:23:58.474Z,98980.59
2022-09-28T16:26:32.872Z,98981.19
2022-09-28T16:29:00.560Z,98985.59
2022-09-28T16:31:30.084Z,98989.72
2022-09-28T16:33:59.586Z,98990.81
2022-09-28T16:36:29.919Z,98990.81
2022-09-28T16:38:56.615Z,98989.63
2022-09-28T16:41:26.322Z,98997.03
2022-09-28T16:43:57.067Z,98997.47
2022-09-28T16:46:29.858Z,99010.59
2022-09-28T16:48:56.809Z,99008.41
2022-09-28T16:51:23.703Z,99011.38
2022-09-28T16:54:08.959Z,99016.75
2022-09-28T16:56:36.247Z,99009.16
2022-09-28T16:59:03.866Z,99017.09
2022-09-28T17:01:31.446Z,99010.91
2022-09-28T17:03:58.226Z,99017.88
2022-09-28T17:06:27.680Z,99017.72
2022-09-28T17:08:58.392Z,99017.50
2022-09-28T17:11:25.360Z,99024.78
2022-09-28T17:13:53.576Z,99022.97
2022-09-28T17:19:25.573Z,99029.63
2022-09-28T17:21:52.689Z,99028.03
2022-09-28T17:24:19.540Z,99023.19
2022-09-28T17:26:47.705Z,99039.25
2022-09-28T17:29:15.138Z,99033.91
2022-09-28T17:31:43.050Z,99033.06
2022-09-28T17:34:13.096Z,99035.13
2022-09-28T17:36:41.466Z,99038.06
2022-09-28T17:39:13.580Z,99041.75
2022-09-28T17:41:41.050Z,99045.31
2022-09-28T17:44:08.091Z,99045.41
2022-09-28T17:46:37.688Z,99047.94
2022-09-28T17:49:06.093Z,99049.81
2022-09-28T17:51:34.957Z,99041.13
2022-09-28T17:54:02.146Z,99045.75
2022-09-28T17:56:32.125Z,99045.88
2022-09-28T17:59:00.828Z,99046.03
2022-09-28T18:01:33.849Z,99041.94
2022-09-28T18:04:02.372Z,99052.72
2022-09-28T18:06:29.176Z,99047.69
2022-09-28T18:08:55.842Z,99047.25
2022-09-28T18:11:22.731Z,99061.81
2022-09-28T18:13:49.458Z,99064.81
2022-09-28T18:16:16.378Z,99063.00
2022-09-28T18:18:43.160Z,99061.44
2022-09-28T18:21:09.846Z,99059.88
2022-09-28T18:23:38.059Z,99066.78
2022-09-28T18:26:11.093Z,99068.69
2022-09-28T18:28:37.800Z,99071.00
2022-09-28T18:31:08.869Z,99077.38
2022-09-28T18:33:50.785Z,99083.59
2022-09-28T18:36:17.469Z,99083.81
2022-09-28T18:38:44.160Z,99087.47
2022-09-28T18:41:15.876Z,99084.91
2022-09-28T18:43:48.858Z,99086.97
2022-09-28T18:46:18.051Z,99093.28
2022-09-28T18:48:44.879Z,99089.19
2022-09-28T18:51:12.445Z,99093.53
2022-09-28T18:53:39.885Z,99092.78
2022-09-28T18:56:09.266Z,99100.63
2022-09-28T18:58:37.261Z,99094.44
2022-09-28T19:01:31.513Z,99103.00
2022-09-28T19:04:17.067Z,99105.47
2022-09-28T19:06:44.736Z,99109.97
2022-09-28T19:09:11.716Z,99110.22
2022-09-28T19:11:38.417Z,99111.31
2022-09-28T19:14:05.256Z,99110.34
2022-09-28T19:16:34.059Z,99108.69
2022-09-28T19:19:02.703Z,99107.88
2022-09-28T19:21:30.435Z,99117.47
2022-09-28T19:24:03.941Z,99113.13
2022-09-28T19:26:32.841Z,99118.28
2022-09-28T19:28:59.948Z,99114.84
2022-09-28T19:31:26.774Z,99115.66
2022-09-28T19:33:53.425Z,99116.38
2022-09-28T19:36:23.471Z,99118.94
2022-09-28T19:38:51.322Z,99131.06
2022-09-28T19:41:43.591Z,99120.66
2022-09-28T19:44:27.680Z,99118.28
2022-09-28T19:46:59.600Z,99122.56
2022-09-28T19:49:27.824Z,99119.19
2022-09-28T19:54:58.203Z,99114.06
2022-09-28T19:57:27.708Z,99113.88
2022-09-28T20:00:00.864Z,99116.69
2022-09-28T20:02:28.686Z,99128.47
2022-09-28T20:04:55.467Z,99125.66
2022-09-28T20:07:22.178Z,99131.00
2022-09-28T20:09:48.886Z,99133.72
2022-09-28T20:12:15.487Z,99134.69
2022-09-28T20:14:42.126Z,99132.13
2022-09-28T20:17:09.565Z,99141.84
2022-09-28T20:19:36.275Z,99147.03
2022-09-28T20:22:03.439Z,99152.22
2022-09-28T20:24:31.208Z,99145.13
2022-09-28T20:26:58.222Z,99147.03
2022-09-28T20:29:25.226Z,99148.69
2022-09-28T20:31:52.117Z,99153.03
2022-09-28T20:34:18.922Z,99145.66
2022-09-28T20:36:45.604Z,99159.81
2022-09-28T20:39:12.978Z,99159.81
2022-09-28T20:41:42.586Z,99157.94
2022-09-28T20:44:09.894Z,99157.00
2022-09-28T20:46:36.781Z,99160.44
2022-09-28T20:49:04.465Z,99154.09
2022-09-28T20:51:31.974Z,99159.34
2022-09-28T20:53:59.035Z,99159.28
2022-09-28T20:56:27.789Z,99160.19
2022-09-28T20:58:54.864Z,99164.38
2022-09-28T21:01:23.571Z,99162.41
2022-09-28T21:03:58.503Z,99159.94
2022-09-28T21:06:33.648Z,99171.97
2022-09-28T21:09:00.588Z,99163.28
2022-09-28T21:11:28.796Z,99169.56
2022-09-28T21:13:58.312Z,99181.59
2022-09-28T21:16:26.637Z,99171.97
2022-09-28T21:18:53.483Z,99178.13
2022-09-28T21:21:21.376Z,99185.63
2022-09-28T21:23:48.079Z,99187.38
2022-09-28T21:26:24.958Z,99190.25
2022-09-28T21:28:59.040Z,99192.53
2022-09-28T21:31:29.538Z,99201.31
2022-09-28T21:33:57.746Z,99196.28
2022-09-28T21:36:24.961Z,99202.69
2022-09-28T21:38:51.671Z,99206.09
2022-09-28T21:41:18.331Z,99209.06
2022-09-28T21:43:45.652Z,99208.16
2022-09-28T21:46:12.741Z,99217.34
2022-09-28T21:48:39.479Z,99214.84
2022-09-28T21:51:09.222Z,99213.13
2022-09-28T21:53:37.330Z,99215.19
2022-09-28T21:56:06.097Z,99210.69
2022-09-28T21:58:34.678Z,99219.44
2022-09-28T22:01:07.020Z,99225.06
2022-09-28T22:03:35.386Z,99214.97
2022-09-28T22:06:03.438Z,99223.63
2022-09-28T22:08:30.399Z,99218.66
2022-09-28T22:11:17.992Z,99220.53
2022-09-28T22:13:45.543Z,99218.84
2022-09-28T22:16:14.245Z,99214.38
2022-09-28T22:18:41.027Z,99224.38
2022-09-28T22:21:10.964Z,99222.66
2022-09-28T22:23:38.616Z,99226.28
2022-09-28T22:26:11.514Z,99223.00
2022-09-28T22:28:39.930Z,99225.81
2022-09-28T22:31:06.581Z,99233.53
2022-09-28T22:33:34.108Z,99225.75
2022-09-28T22:36:00.798Z,99226.84
2022-09-28T22:38:28.295Z,99227.78
2022-09-28T22:40:55.801Z,99232.44
2022-09-28T22:43:23.500Z,99229.78
2022-09-28T22:46:14.486Z,99246.44
2022-09-28T22:48:42.675Z,99230.03
2022-09-28T22:51:09.798Z,99239.47
2022-09-28T22:53:36.503Z,99238.38
2022-09-28T22:56:05.690Z,99236.44
2022-09-28T22:58:33.890Z,99244.00
2022-09-28T23:01:07.823Z,99234.59
2022-09-28T23:03:35.038Z,99237.19
2022-09-28T23:06:01.978Z,99245.06
2022-09-28T23:08:28.893Z,99244.28
2022-09-28T23:10:55.569Z,99249.44
2022-09-28T23:13:22.579Z,99246.25
2022-09-28T23:16:04.051Z,99250.78
2022-09-28T23:18:33.045Z,99250.69
2022-09-28T23:21:04.779Z,99254.63
2022-09-28T23:23:31.735Z,99248.72
2022-09-28T23:25:58.704Z,99247.16
2022-09-28T23:28:27.284Z,99248.16
2022-09-28T23:30:54.198Z,99251.69
2022-09-28T23:33:21.648Z,99254.34
2022-09-28T23:35:48.340Z,99250.81
2022-09-28T23:38:20.387Z,99257.75
2022-09-28T23:40:47.539Z,99257.75
2022-09-28T23:43:14.585Z,99249.00
2022-09-28T23:45:43.183Z,99251.16
2022-09-28T23:48:13.000Z,99260.72
2022-09-28T23:50:39.606Z,99255.56
2022-09-28T23:53:06.612Z,99252.13
2022-09-28T23:55:33.429Z,99254.88
2022-09-28T23:58:00.086Z,99262.72
